^^
Your Local Weather - Clay, NY Station Historical Data
Daily Summary for January 6, 2018 Units:  English    Metric   Both
« Previous Day
Next Day »
Daily Weekly Monthly Yearly Custom
  High: Low: Average:
Temperature: 5.4 °F -0.6 °F 2.7 °F
Dew Point: 1.9 °F -4.3 °F -1 °F
Humidity: 86% 81% 84%
Wind Speed: 5.0mph 0.0mph 2.3mph
Wind Gust: 9.0mph - -
Wind- - NW
Pressure: 30.50 in 30.02 in -
Precipitation: 0.00 in    
Historical Graphs
 
 
Tabular Data for January 6, 2018
Time Temperature Dew Point Pressure Wind Wind Speed Wind Gust Humidity Rainfall Rate (Hourly) solar
00:06 4.9 °F 1.6 °F 30.02 in NW 5.0 mph 7.0 mph 86% 0.00 in 0 W/m2
00:16 4.9 °F 1.6 °F 30.02 in NW 4.0 mph 5.0 mph 86% 0.00 in 0 W/m2
00:22 4.9 °F 1.6 °F 30.02 in NW 4.0 mph 4.0 mph 86% 0.00 in 0 W/m2
00:28 4.9 °F 1.6 °F 30.03 in WNW 5.0 mph 9.0 mph 86% 0.00 in 0 W/m2
00:34 5.0 °F 1.7 °F 30.02 in WNW 5.0 mph 5.0 mph 86% 0.00 in 0 W/m2
00:40 5.0 °F 1.7 °F 30.02 in NW 4.0 mph 8.0 mph 86% 0.00 in 0 W/m2
00:48 5.1 °F 1.8 °F 30.03 in WNW 3.0 mph 8.0 mph 86% 0.00 in 0 W/m2
00:54 5.1 °F 1.8 °F 30.03 in West 3.0 mph 7.0 mph 86% 0.00 in 0 W/m2
01:00 5.1 °F 1.8 °F 30.03 in WNW 4.0 mph 6.0 mph 86% 0.00 in 0 W/m2
01:06 5.2 °F 1.9 °F 30.03 in WNW 5.0 mph 6.0 mph 86% 0.00 in 0 W/m2
01:14 4.8 °F 1.5 °F 30.04 in WNW 3.0 mph 7.0 mph 86% 0.00 in 0 W/m2
01:20 4.5 °F 1.0 °F 30.03 in West 2.0 mph 2.0 mph 85% 0.00 in 0 W/m2
01:26 4.2 °F 0.7 °F 30.04 in WNW 1.0 mph 2.0 mph 85% 0.00 in 0 W/m2
01:34 4.0 °F 0.5 °F 30.04 in West 2.0 mph 2.0 mph 85% 0.00 in 0 W/m2
01:40 3.9 °F 0.4 °F 30.05 in WNW 2.0 mph 2.0 mph 85% 0.00 in 0 W/m2
01:48 3.9 °F 0.4 °F 30.05 in WNW 2.0 mph 3.0 mph 85% 0.00 in 0 W/m2
01:52 3.9 °F 0.4 °F 30.05 in West 2.0 mph 3.0 mph 85% 0.00 in 0 W/m2
02:00 4.1 °F 0.8 °F 30.05 in WNW 2.0 mph 2.0 mph 86% 0.00 in 0 W/m2
02:08 4.3 °F 1.0 °F 30.06 in NNW 3.0 mph 7.0 mph 86% 0.00 in 0 W/m2
02:14 4.3 °F 1.0 °F 30.06 in NW 4.0 mph 9.0 mph 86% 0.00 in 0 W/m2
02:18 4.1 °F 0.8 °F 30.07 in NNW 5.0 mph 9.0 mph 86% 0.00 in 0 W/m2
02:24 4.0 °F 0.5 °F 30.07 in NW 4.0 mph 6.0 mph 85% 0.00 in 0 W/m2
02:30 3.8 °F 0.3 °F 30.07 in NNW 3.0 mph 3.0 mph 85% 0.00 in 0 W/m2
02:36 3.6 °F 0.1 °F 30.07 in NNW 3.0 mph 3.0 mph 85% 0.00 in 0 W/m2
02:42 3.3 °F -0.2 °F 30.08 in WNW 3.0 mph 3.0 mph 85% 0.00 in 0 W/m2
02:48 3.1 °F -0.4 °F 30.08 in NW 3.0 mph 7.0 mph 85% 0.00 in 0 W/m2
02:56 2.7 °F -0.8 °F 30.08 in WNW 4.0 mph 4.0 mph 85% 0.00 in 0 W/m2
03:02 2.4 °F -1.1 °F 30.08 in WNW 3.0 mph 4.0 mph 85% 0.00 in 0 W/m2
03:08 2.2 °F -1.3 °F 30.09 in NW 3.0 mph 4.0 mph 85% 0.00 in 0 W/m2
03:16 2.0 °F -1.5 °F 30.09 in WNW 3.0 mph 6.0 mph 85% 0.00 in 0 W/m2
03:22 1.8 °F -1.7 °F 30.09 in NNW 4.0 mph 4.0 mph 85% 0.00 in 0 W/m2
03:42 1.2 °F -2.5 °F 30.10 in NNW 3.0 mph 3.0 mph 84% 0.00 in 0 W/m2
03:56 1.1 °F -2.6 °F 30.10 in NW 3.0 mph 4.0 mph 84% 0.00 in 0 W/m2
04:02 1.0 °F -2.7 °F 30.10 in NNW 3.0 mph 3.0 mph 84% 0.00 in 0 W/m2
04:08 1.0 °F -2.7 °F 30.10 in WNW 4.0 mph 4.0 mph 84% 0.00 in 0 W/m2
04:16 1.0 °F -2.7 °F 30.11 in NNW 4.0 mph 5.0 mph 84% 0.00 in 0 W/m2
04:22 1.1 °F -2.6 °F 30.10 in NW 4.0 mph 8.0 mph 84% 0.00 in 0 W/m2
04:28 1.1 °F -2.6 °F 30.10 in West 4.0 mph 8.0 mph 84% 0.00 in 0 W/m2
04:34 1.1 °F -2.6 °F 30.11 in WNW 3.0 mph 4.0 mph 84% 0.00 in 0 W/m2
04:40 1.1 °F -2.6 °F 30.11 in WNW 3.0 mph 3.0 mph 84% 0.00 in 0 W/m2
04:46 1.1 °F -2.6 °F 30.11 in NW 2.0 mph 3.0 mph 84% 0.00 in 0 W/m2
04:52 1.1 °F -2.6 °F 30.11 in NW 3.0 mph 3.0 mph 84% 0.00 in 0 W/m2
04:58 1.1 °F -2.6 °F 30.11 in NW 3.0 mph 6.0 mph 84% 0.00 in 0 W/m2
05:06 1.1 °F -2.6 °F 30.12 in WNW 2.0 mph 3.0 mph 84% 0.00 in 0 W/m2
05:14 1.0 °F -2.7 °F 30.13 in NW 3.0 mph 3.0 mph 84% 0.00 in 0 W/m2
05:20 0.9 °F -2.8 °F 30.13 in NW 3.0 mph 3.0 mph 84% 0.00 in 0 W/m2
05:28 0.8 °F -2.9 °F 30.13 in WNW 3.0 mph 5.0 mph 84% 0.00 in 0 W/m2
05:40 0.7 °F -3.0 °F 30.14 in NNW 2.0 mph 2.0 mph 84% 0.00 in 0 W/m2
05:52 0.4 °F -3.3 °F 30.15 in NNW 3.0 mph 3.0 mph 84% 0.00 in 0 W/m2
05:58 0.2 °F -3.5 °F 30.15 in WNW 2.0 mph 3.0 mph 84% 0.00 in 0 W/m2
06:08 0.0 °F -3.7 °F 30.16 in WNW 3.0 mph 4.0 mph 84% 0.00 in 0 W/m2
06:14 -0.1 °F -3.8 °F 30.16 in NW 2.0 mph 4.0 mph 84% 0.00 in 0 W/m2
06:24 -0.2 °F -3.9 °F 30.16 in NW 1.0 mph 3.0 mph 84% 0.00 in 0 W/m2
06:34 -0.5 °F -4.2 °F 30.16 in NW 2.0 mph 3.0 mph 84% 0.00 in 0 W/m2
06:40 -0.5 °F -4.2 °F 30.16 in NNW 2.0 mph 2.0 mph 84% 0.00 in 0 W/m2
06:46 -0.6 °F -4.3 °F 30.17 in NW 1.0 mph 2.0 mph 84% 0.00 in 0 W/m2
06:54 -0.6 °F -4.3 °F 30.17 in Calm   1.0 mph 84% 0.00 in 0 W/m2
07:00 -0.6 °F -4.3 °F 30.17 in Calm   1.0 mph 84% 0.00 in 0 W/m2
07:06 -0.5 °F -4.2 °F 30.18 in NW 1.0 mph 2.0 mph 84% 0.00 in 0 W/m2
07:14 -0.2 °F -3.9 °F 30.17 in WNW 2.0 mph 3.0 mph 84% 0.00 in 0 W/m2
07:22 0.2 °F -3.5 °F 30.17 in WNW 2.0 mph 2.0 mph 84% 0.00 in 0 W/m2
07:30 0.5 °F -3.2 °F 30.18 in WNW 2.0 mph 2.0 mph 84% 0.00 in 0 W/m2
07:38 0.8 °F -2.7 °F 30.18 in WNW 3.0 mph 3.0 mph 85% 0.00 in 0 W/m2
07:46 1.1 °F -2.4 °F 30.18 in NW 2.0 mph 4.0 mph 85% 0.00 in 0 W/m2
07:52 1.2 °F -2.3 °F 30.18 in NW 2.0 mph 5.0 mph 85% 0.00 in 0 W/m2
07:58 1.4 °F -2.1 °F 30.18 in WNW 2.0 mph 5.0 mph 85% 0.00 in 0 W/m2
08:04 1.5 °F -2.0 °F 30.19 in WNW 2.0 mph 2.0 mph 85% 0.00 in 0 W/m2
08:10 1.6 °F -1.9 °F 30.19 in NW 2.0 mph 2.0 mph 85% 0.00 in 0 W/m2
08:16 1.6 °F -1.9 °F 30.19 in WNW 2.0 mph 3.0 mph 85% 0.00 in 0 W/m2
08:22 1.6 °F -1.9 °F 30.19 in NW 2.0 mph 2.0 mph 85% 0.00 in 5 W/m2
08:28 1.5 °F -2.0 °F 30.19 in NW 2.0 mph 2.0 mph 85% 0.00 in 5 W/m2
08:34 1.5 °F -2.0 °F 30.20 in NW 2.0 mph 4.0 mph 85% 0.00 in 7 W/m2
08:40 1.5 °F -2.0 °F 30.20 in NNW 2.0 mph 2.0 mph 85% 0.00 in 7 W/m2
08:46 1.6 °F -1.9 °F 30.20 in WNW 2.0 mph 2.0 mph 85% 0.00 in 9 W/m2
08:52 1.7 °F -1.8 °F 30.21 in WNW 1.0 mph 1.0 mph 85% 0.00 in 9 W/m2
09:00 2.1 °F -1.4 °F 30.21 in WNW 1.0 mph 1.0 mph 85% 0.00 in 12 W/m2
09:10 2.8 °F -0.7 °F 30.21 in NW 2.0 mph 2.0 mph 85% 0.00 in 12 W/m2
09:16 3.0 °F -0.5 °F 30.22 in NNW 1.0 mph 3.0 mph 85% 0.00 in 12 W/m2
09:22 3.1 °F -0.4 °F 30.22 in NNW 1.0 mph 6.0 mph 85% 0.00 in 12 W/m2
09:28 3.2 °F -0.3 °F 30.23 in NW 2.0 mph 6.0 mph 85% 0.00 in 12 W/m2
09:36 3.1 °F -0.4 °F 30.23 in North 2.0 mph 2.0 mph 85% 0.00 in 14 W/m2
09:44 2.8 °F -0.7 °F 30.24 in NW 3.0 mph 4.0 mph 85% 0.00 in 12 W/m2
09:52 2.4 °F -1.1 °F 30.24 in NW 3.0 mph 3.0 mph 85% 0.00 in 14 W/m2
09:58 2.3 °F -1.4 °F 30.25 in NW 3.0 mph 3.0 mph 84% 0.00 in 14 W/m2
10:06 2.0 °F -1.7 °F 30.25 in WNW 4.0 mph 4.0 mph 84% 0.00 in 14 W/m2
10:12 1.8 °F -1.9 °F 30.25 in North 3.0 mph 6.0 mph 84% 0.00 in 19 W/m2
10:20 1.7 °F -2.0 °F 30.26 in NNW 3.0 mph 4.0 mph 84% 0.00 in 16 W/m2
10:32 1.7 °F -2.0 °F 30.26 in NW 2.0 mph 3.0 mph 84% 0.00 in 14 W/m2
10:38 1.7 °F -2.0 °F 30.27 in NNW 3.0 mph 3.0 mph 84% 0.00 in 16 W/m2
10:48 1.6 °F -2.1 °F 30.27 in NW 3.0 mph 4.0 mph 84% 0.00 in 19 W/m2
10:56 1.7 °F -2.0 °F 30.27 in WNW 2.0 mph 5.0 mph 84% 0.00 in 18 W/m2
11:04 1.7 °F -2.0 °F 30.27 in NW 3.0 mph 4.0 mph 84% 0.00 in 18 W/m2
11:10 1.8 °F -1.9 °F 30.27 in NW 3.0 mph 3.0 mph 84% 0.00 in 23 W/m2
11:16 1.9 °F -1.8 °F 30.27 in NW 2.0 mph 3.0 mph 84% 0.00 in 23 W/m2
11:22 2.1 °F -1.6 °F 30.27 in NNW 3.0 mph 3.0 mph 84% 0.00 in 21 W/m2
11:28 2.1 °F -1.6 °F 30.27 in NNW 3.0 mph 3.0 mph 84% 0.00 in 23 W/m2
11:34 2.1 °F -1.6 °F 30.27 in NW 3.0 mph 5.0 mph 84% 0.00 in 26 W/m2
11:40 2.2 °F -1.5 °F 30.27 in NW 3.0 mph 3.0 mph 84% 0.00 in 28 W/m2
11:46 2.2 °F -1.5 °F 30.27 in NNW 3.0 mph 3.0 mph 84% 0.00 in 32 W/m2
11:54 2.2 °F -1.8 °F 30.27 in WNW 3.0 mph 4.0 mph 83% 0.00 in 30 W/m2
12:06 2.1 °F -1.9 °F 30.27 in NW 4.0 mph 6.0 mph 83% 0.00 in 33 W/m2
12:12 2.4 °F -1.6 °F 30.27 in NNW 4.0 mph 9.0 mph 83% 0.00 in 35 W/m2
12:24 3.1 °F -0.9 °F 30.27 in NNW 3.0 mph 3.0 mph 83% 0.00 in 35 W/m2
12:30 3.2 °F -1.1 °F 30.27 in NW 3.0 mph 3.0 mph 82% 0.00 in 26 W/m2
12:36 3.2 °F -1.1 °F 30.27 in WNW 3.0 mph 3.0 mph 82% 0.00 in 21 W/m2
12:48 3.7 °F -0.8 °F 30.28 in WNW 3.0 mph 6.0 mph 81% 0.00 in 30 W/m2
12:54 3.7 °F -0.6 °F 30.28 in NW 3.0 mph 7.0 mph 82% 0.00 in 26 W/m2
13:00 3.3 °F -1.0 °F 30.28 in NW 3.0 mph 3.0 mph 82% 0.00 in 21 W/m2
13:10 3.0 °F -1.3 °F 30.28 in NNW 3.0 mph 3.0 mph 82% 0.00 in 28 W/m2
13:20 3.3 °F -1.0 °F 30.29 in NNW 3.0 mph 3.0 mph 82% 0.00 in 26 W/m2
13:26 3.3 °F -0.7 °F 30.29 in NW 3.0 mph 3.0 mph 83% 0.00 in 18 W/m2
13:32 3.3 °F -0.7 °F 30.29 in NW 2.0 mph 3.0 mph 83% 0.00 in 19 W/m2
13:40 3.2 °F -0.8 °F 30.29 in NW 2.0 mph 2.0 mph 83% 0.00 in 18 W/m2
13:46 3.4 °F -0.6 °F 30.29 in NNW 3.0 mph 3.0 mph 83% 0.00 in 23 W/m2
13:52 4.1 °F 0.1 °F 30.29 in NNW 3.0 mph 3.0 mph 83% 0.00 in 47 W/m2
13:58 4.7 °F 0.7 °F 30.29 in NNW 3.0 mph 4.0 mph 83% 0.00 in 23 W/m2
14:04 4.4 °F 0.4 °F 30.29 in NW 3.0 mph 4.0 mph 83% 0.00 in 23 W/m2
14:10 4.4 °F 0.4 °F 30.30 in NNW 2.0 mph 2.0 mph 83% 0.00 in 21 W/m2
14:16 4.6 °F 0.6 °F 30.30 in NW 2.0 mph 3.0 mph 83% 0.00 in 21 W/m2
14:22 5.0 °F 1.0 °F 30.30 in NW 2.0 mph 2.0 mph 83% 0.00 in 19 W/m2
14:30 5.0 °F 1.0 °F 30.30 in WNW 3.0 mph 3.0 mph 83% 0.00 in 19 W/m2
14:36 4.9 °F 0.9 °F 30.30 in NW 4.0 mph 4.0 mph 83% 0.00 in 23 W/m2
14:44 5.3 °F 1.0 °F 30.31 in WNW 3.0 mph 3.0 mph 82% 0.00 in 19 W/m2
14:50 5.4 °F 1.4 °F 30.31 in NW 3.0 mph 4.0 mph 83% 0.00 in 18 W/m2
14:56 5.4 °F 1.4 °F 30.32 in NW 3.0 mph 7.0 mph 83% 0.00 in 12 W/m2
15:02 5.3 °F 1.3 °F 30.32 in NW 3.0 mph 6.0 mph 83% 0.00 in 9 W/m2
15:08 5.1 °F 1.1 °F 30.32 in WNW 4.0 mph 6.0 mph 83% 0.00 in 7 W/m2
15:14 4.9 °F 0.9 °F 30.33 in NW 3.0 mph 5.0 mph 83% 0.00 in 7 W/m2
15:20 4.7 °F 0.7 °F 30.33 in WNW 3.0 mph 3.0 mph 83% 0.00 in 5 W/m2
15:26 4.6 °F 0.8 °F 30.33 in NW 3.0 mph 5.0 mph 84% 0.00 in 5 W/m2
15:32 4.6 °F 0.8 °F 30.33 in WNW 2.0 mph 3.0 mph 84% 0.00 in 5 W/m2
15:38 4.6 °F 0.8 °F 30.33 in NW 2.0 mph 4.0 mph 84% 0.00 in 5 W/m2
15:44 4.6 °F 0.8 °F 30.34 in NNW 2.0 mph 2.0 mph 84% 0.00 in 0 W/m2
15:52 4.5 °F 0.7 °F 30.34 in WNW 2.0 mph 4.0 mph 84% 0.00 in 0 W/m2
16:00 4.6 °F 0.8 °F 30.35 in WNW 2.0 mph 4.0 mph 84% 0.00 in 0 W/m2
16:06 4.7 °F 0.9 °F 30.35 in WNW 2.0 mph 4.0 mph 84% 0.00 in 0 W/m2
16:14 4.7 °F 1.2 °F 30.35 in WNW 2.0 mph 4.0 mph 85% 0.00 in 0 W/m2
16:22 4.7 °F 1.2 °F 30.36 in WNW 2.0 mph 3.0 mph 85% 0.00 in 0 W/m2
16:30 4.7 °F 1.2 °F 30.36 in WNW 3.0 mph 3.0 mph 85% 0.00 in 0 W/m2
16:36 4.7 °F 0.9 °F 30.36 in NW 2.0 mph 3.0 mph 84% 0.00 in 0 W/m2
16:42 4.7 °F 1.2 °F 30.36 in NW 2.0 mph 2.0 mph 85% 0.00 in 0 W/m2
16:50 4.6 °F 1.1 °F 30.36 in NW 2.0 mph 6.0 mph 85% 0.00 in 0 W/m2
16:56 4.4 °F 0.9 °F 30.37 in NNW 2.0 mph 4.0 mph 85% 0.00 in 0 W/m2
17:02 4.3 °F 0.5 °F 30.38 in NW 3.0 mph 4.0 mph 84% 0.00 in 0 W/m2
17:08 4.2 °F 0.4 °F 30.38 in NNW 3.0 mph 4.0 mph 84% 0.00 in 0 W/m2
17:14 4.1 °F 0.3 °F 30.38 in NW 2.0 mph 2.0 mph 84% 0.00 in 0 W/m2
17:20 4.0 °F 0.2 °F 30.38 in NW 1.0 mph 1.0 mph 84% 0.00 in 0 W/m2
17:26 4.0 °F 0.5 °F 30.38 in NW 1.0 mph 1.0 mph 85% 0.00 in 0 W/m2
17:32 3.9 °F 0.4 °F 30.38 in Calm   3.0 mph 85% 0.00 in 0 W/m2
17:38 3.8 °F 0.3 °F 30.39 in NNW 1.0 mph 3.0 mph 85% 0.00 in 0 W/m2
17:44 3.7 °F 0.2 °F 30.40 in Calm   3.0 mph 85% 0.00 in 0 W/m2
17:50 3.6 °F 0.1 °F 30.40 in NW 1.0 mph 1.0 mph 85% 0.00 in 0 W/m2
17:56 3.5 °F 0.0 °F 30.40 in NNW 1.0 mph 2.0 mph 85% 0.00 in 0 W/m2
18:04 3.4 °F -0.1 °F 30.40 in Calm   1.0 mph 85% 0.00 in 0 W/m2
18:10 3.4 °F -0.1 °F 30.40 in Calm     85% 0.00 in 0 W/m2
18:20 3.4 °F -0.1 °F 30.41 in NNW 1.0 mph 2.0 mph 85% 0.00 in 0 W/m2
18:26 3.4 °F -0.1 °F 30.41 in NW 2.0 mph 2.0 mph 85% 0.00 in 0 W/m2
18:32 3.5 °F 0.0 °F 30.41 in NW 2.0 mph 2.0 mph 85% 0.00 in 0 W/m2
18:38 3.4 °F -0.1 °F 30.41 in NW 2.0 mph 2.0 mph 85% 0.00 in 0 W/m2
18:46 3.3 °F -0.2 °F 30.42 in NNW 2.0 mph 4.0 mph 85% 0.00 in 0 W/m2
18:52 3.2 °F -0.3 °F 30.42 in NW 2.0 mph 3.0 mph 85% 0.00 in 0 W/m2
18:58 3.1 °F -0.4 °F 30.42 in NNW 2.0 mph 4.0 mph 85% 0.00 in 0 W/m2
19:04 2.9 °F -0.8 °F 30.43 in NNW 2.0 mph 4.0 mph 84% 0.00 in 0 W/m2
19:12 2.8 °F -0.9 °F 30.43 in NW 3.0 mph 3.0 mph 84% 0.00 in 0 W/m2
19:24 2.6 °F -1.1 °F 30.44 in NW 3.0 mph 3.0 mph 84% 0.00 in 0 W/m2
19:30 2.5 °F -1.2 °F 30.44 in North 2.0 mph 3.0 mph 84% 0.00 in 0 W/m2
19:36 2.4 °F -1.3 °F 30.44 in NNW 2.0 mph 3.0 mph 84% 0.00 in 0 W/m2
19:42 2.4 °F -1.3 °F 30.44 in NW 3.0 mph 3.0 mph 84% 0.00 in 0 W/m2
19:48 2.3 °F -1.4 °F 30.44 in NNW 1.0 mph 3.0 mph 84% 0.00 in 0 W/m2
19:54 2.2 °F -1.5 °F 30.45 in North 1.0 mph 4.0 mph 84% 0.00 in 0 W/m2
20:04 2.1 °F -1.6 °F 30.45 in NNW 2.0 mph 2.0 mph 84% 0.00 in 0 W/m2
20:12 2.0 °F -1.7 °F 30.46 in NW 2.0 mph 2.0 mph 84% 0.00 in 0 W/m2
20:18 2.0 °F -1.7 °F 30.46 in NNW 2.0 mph 4.0 mph 84% 0.00 in 0 W/m2
20:24 2.0 °F -1.7 °F 30.46 in NNW 2.0 mph 4.0 mph 84% 0.00 in 0 W/m2
20:34 1.9 °F -2.1 °F 30.46 in NW 2.0 mph 3.0 mph 83% 0.00 in 0 W/m2
20:42 1.8 °F -2.2 °F 30.47 in NW 2.0 mph 3.0 mph 83% 0.00 in 0 W/m2
20:50 1.7 °F -2.3 °F 30.47 in NNW 1.0 mph 2.0 mph 83% 0.00 in 0 W/m2
20:56 1.7 °F -2.3 °F 30.47 in NW 1.0 mph 2.0 mph 83% 0.00 in 0 W/m2
21:02 1.6 °F -2.1 °F 30.48 in NW 1.0 mph 2.0 mph 84% 0.00 in 0 W/m2
21:08 1.6 °F -2.4 °F 30.48 in NW 1.0 mph 3.0 mph 83% 0.00 in 0 W/m2
21:14 1.6 °F -2.1 °F 30.48 in NW 1.0 mph 2.0 mph 84% 0.00 in 0 W/m2
21:22 1.6 °F -2.1 °F 30.48 in NW 1.0 mph 1.0 mph 84% 0.00 in 0 W/m2
21:30 1.6 °F -2.4 °F 30.48 in NW 1.0 mph 1.0 mph 83% 0.00 in 0 W/m2
21:38 1.6 °F -2.1 °F 30.48 in NW 1.0 mph 2.0 mph 84% 0.00 in 0 W/m2
21:44 1.6 °F -2.1 °F 30.48 in NW 1.0 mph 4.0 mph 84% 0.00 in 0 W/m2
21:50 1.7 °F -2.0 °F 30.48 in NW 1.0 mph 1.0 mph 84% 0.00 in 0 W/m2
21:56 1.7 °F -2.0 °F 30.49 in NW 1.0 mph 3.0 mph 84% 0.00 in 0 W/m2
22:02 1.7 °F -2.0 °F 30.49 in NNW 1.0 mph 3.0 mph 84% 0.00 in 0 W/m2
22:10 1.7 °F -2.0 °F 30.49 in NNW 1.0 mph 1.0 mph 84% 0.00 in 0 W/m2
22:16 1.7 °F -2.0 °F 30.49 in Calm   2.0 mph 84% 0.00 in 0 W/m2
22:24 1.7 °F -2.0 °F 30.49 in WNW 1.0 mph 3.0 mph 84% 0.00 in 0 W/m2
22:30 1.7 °F -2.0 °F 30.49 in NNW 1.0 mph 1.0 mph 84% 0.00 in 0 W/m2
22:36 1.7 °F -2.0 °F 30.49 in NNW 1.0 mph 1.0 mph 84% 0.00 in 0 W/m2
22:42 1.7 °F -2.0 °F 30.49 in Calm   1.0 mph 84% 0.00 in 0 W/m2
22:48 1.7 °F -2.0 °F 30.49 in Calm   1.0 mph 84% 0.00 in 0 W/m2
22:54 1.7 °F -2.0 °F 30.49 in Calm   2.0 mph 84% 0.00 in 0 W/m2
23:02 1.7 °F -2.0 °F 30.49 in NNW 1.0 mph 2.0 mph 84% 0.00 in 0 W/m2
23:08 1.7 °F -2.0 °F 30.49 in WNW 1.0 mph 2.0 mph 84% 0.00 in 0 W/m2
23:16 1.8 °F -1.9 °F 30.49 in WNW 1.0 mph 1.0 mph 84% 0.00 in 0 W/m2
23:24 1.8 °F -1.9 °F 30.49 in NW 1.0 mph 2.0 mph 84% 0.00 in 0 W/m2
23:30 1.8 °F -1.9 °F 30.49 in WNW 1.0 mph 2.0 mph 84% 0.00 in 0 W/m2
23:36 1.9 °F -1.8 °F 30.49 in WNW 2.0 mph 2.0 mph 84% 0.00 in 0 W/m2
23:46 1.9 °F -1.8 °F 30.50 in NW 1.0 mph 1.0 mph 84% 0.00 in 0 W/m2
23:56 2.0 °F -1.7 °F 30.50 in NW 1.0 mph 2.0 mph 84% 0.00 in 0 W/m2
Country Meadow, Clay, NY, USA
Compliments of Weather Underground - 2 mb